sensor_id;sensor_type;location;lat;lon;timestamp;P1;durP1;ratioP1;P2;durP2;ratioP2
21352;SDS011;10834;52.268;6.770;2023-04-25T00:00:53;20.47;;;4.50;;
21352;SDS011;10834;52.268;6.770;2023-04-25T00:03:39;17.07;;;4.47;;
21352;SDS011;10834;52.268;6.770;2023-04-25T00:06:25;14.13;;;4.30;;
21352;SDS011;10834;52.268;6.770;2023-04-25T00:09:11;15.67;;;5.00;;
21352;SDS011;10834;52.268;6.770;2023-04-25T00:11:57;16.10;;;4.20;;
21352;SDS011;10834;52.268;6.770;2023-04-25T00:14:44;19.80;;;4.37;;
21352;SDS011;10834;52.268;6.770;2023-04-25T00:17:32;19.73;;;5.07;;
21352;SDS011;10834;52.268;6.770;2023-04-25T00:20:18;13.27;;;4.00;;
21352;SDS011;10834;52.268;6.770;2023-04-25T00:23:04;27.77;;;5.37;;
21352;SDS011;10834;52.268;6.770;2023-04-25T00:25:50;16.67;;;4.00;;
21352;SDS011;10834;52.268;6.770;2023-04-25T00:28:36;18.73;;;4.57;;
21352;SDS011;10834;52.268;6.770;2023-04-25T00:31:23;17.47;;;4.90;;
21352;SDS011;10834;52.268;6.770;2023-04-25T00:34:09;19.63;;;5.50;;
21352;SDS011;10834;52.268;6.770;2023-04-25T00:36:55;20.27;;;4.77;;
21352;SDS011;10834;52.268;6.770;2023-04-25T00:39:42;17.70;;;4.63;;
21352;SDS011;10834;52.268;6.770;2023-04-25T00:42:28;15.43;;;4.43;;
21352;SDS011;10834;52.268;6.770;2023-04-25T00:45:15;14.27;;;4.97;;
21352;SDS011;10834;52.268;6.770;2023-04-25T00:48:02;9.77;;;4.07;;
21352;SDS011;10834;52.268;6.770;2023-04-25T00:50:53;14.87;;;4.17;;
21352;SDS011;10834;52.268;6.770;2023-04-25T00:53:40;22.33;;;5.17;;
21352;SDS011;10834;52.268;6.770;2023-04-25T00:56:27;14.17;;;4.10;;
21352;SDS011;10834;52.268;6.770;2023-04-25T00:59:13;15.73;;;5.33;;
21352;SDS011;10834;52.268;6.770;2023-04-25T01:02:00;12.40;;;5.10;;
21352;SDS011;10834;52.268;6.770;2023-04-25T01:04:47;15.47;;;4.80;;
21352;SDS011;10834;52.268;6.770;2023-04-25T01:07:33;11.43;;;4.07;;
21352;SDS011;10834;52.268;6.770;2023-04-25T01:10:20;21.63;;;5.53;;
21352;SDS011;10834;52.268;6.770;2023-04-25T01:13:06;18.87;;;4.57;;
21352;SDS011;10834;52.268;6.770;2023-04-25T01:15:52;11.47;;;4.03;;
21352;SDS011;10834;52.268;6.770;2023-04-25T01:18:38;20.10;;;4.80;;
21352;SDS011;10834;52.268;6.770;2023-04-25T01:21:27;18.37;;;4.53;;
21352;SDS011;10834;52.268;6.770;2023-04-25T01:24:15;14.80;;;5.03;;
21352;SDS011;10834;52.268;6.770;2023-04-25T01:27:01;17.30;;;4.47;;
21352;SDS011;10834;52.268;6.770;2023-04-25T01:29:48;12.57;;;3.97;;
21352;SDS011;10834;52.268;6.770;2023-04-25T01:32:35;14.03;;;4.93;;
21352;SDS011;10834;52.268;6.770;2023-04-25T01:35:24;15.33;;;5.17;;
21352;SDS011;10834;52.268;6.770;2023-04-25T01:38:11;15.77;;;4.73;;
21352;SDS011;10834;52.268;6.770;2023-04-25T01:40:57;16.50;;;3.77;;
21352;SDS011;10834;52.268;6.770;2023-04-25T01:43:43;16.97;;;4.50;;
21352;SDS011;10834;52.268;6.770;2023-04-25T01:46:30;17.37;;;5.07;;
21352;SDS011;10834;52.268;6.770;2023-04-25T01:49:16;18.53;;;4.87;;
21352;SDS011;10834;52.268;6.770;2023-04-25T01:52:03;23.07;;;4.47;;
21352;SDS011;10834;52.268;6.770;2023-04-25T01:54:49;17.10;;;4.80;;
21352;SDS011;10834;52.268;6.770;2023-04-25T01:57:36;16.27;;;6.50;;
21352;SDS011;10834;52.268;6.770;2023-04-25T02:00:22;14.17;;;5.47;;
21352;SDS011;10834;52.268;6.770;2023-04-25T02:03:08;14.67;;;4.73;;
21352;SDS011;10834;52.268;6.770;2023-04-25T02:05:54;13.60;;;4.87;;
21352;SDS011;10834;52.268;6.770;2023-04-25T02:08:41;21.53;;;4.20;;
21352;SDS011;10834;52.268;6.770;2023-04-25T02:11:27;14.27;;;3.97;;
21352;SDS011;10834;52.268;6.770;2023-04-25T02:14:13;11.53;;;4.03;;
21352;SDS011;10834;52.268;6.770;2023-04-25T02:16:59;14.83;;;4.60;;
21352;SDS011;10834;52.268;6.770;2023-04-25T02:19:45;10.90;;;4.23;;
21352;SDS011;10834;52.268;6.770;2023-04-25T02:22:31;14.17;;;4.47;;
21352;SDS011;10834;52.268;6.770;2023-04-25T02:25:17;16.07;;;3.93;;
21352;SDS011;10834;52.268;6.770;2023-04-25T02:28:06;15.50;;;4.90;;
21352;SDS011;10834;52.268;6.770;2023-04-25T02:30:52;18.67;;;4.10;;
21352;SDS011;10834;52.268;6.770;2023-04-25T02:33:38;10.50;;;3.77;;
21352;SDS011;10834;52.268;6.770;2023-04-25T02:36:24;14.83;;;4.40;;
21352;SDS011;10834;52.268;6.770;2023-04-25T02:39:11;11.97;;;4.03;;
21352;SDS011;10834;52.268;6.770;2023-04-25T02:41:57;18.27;;;4.43;;
21352;SDS011;10834;52.268;6.770;2023-04-25T02:44:43;10.87;;;3.90;;
21352;SDS011;10834;52.268;6.770;2023-04-25T02:47:29;15.87;;;4.10;;
21352;SDS011;10834;52.268;6.770;2023-04-25T02:50:16;16.03;;;4.97;;
21352;SDS011;10834;52.268;6.770;2023-04-25T02:53:03;14.53;;;4.73;;
21352;SDS011;10834;52.268;6.770;2023-04-25T02:55:49;15.80;;;3.93;;
21352;SDS011;10834;52.268;6.770;2023-04-25T02:58:37;15.53;;;4.50;;
21352;SDS011;10834;52.268;6.770;2023-04-25T03:01:23;17.20;;;4.40;;
21352;SDS011;10834;52.268;6.770;2023-04-25T03:04:09;13.73;;;4.30;;
21352;SDS011;10834;52.268;6.770;2023-04-25T03:06:56;11.03;;;3.93;;
21352;SDS011;10834;52.268;6.770;2023-04-25T03:09:42;10.30;;;3.93;;
21352;SDS011;10834;52.268;6.770;2023-04-25T03:12:28;10.40;;;3.93;;
21352;SDS011;10834;52.268;6.770;2023-04-25T03:15:14;14.53;;;4.03;;
21352;SDS011;10834;52.268;6.770;2023-04-25T03:18:02;19.37;;;3.13;;
21352;SDS011;10834;52.268;6.770;2023-04-25T03:20:48;15.57;;;5.03;;
21352;SDS011;10834;52.268;6.770;2023-04-25T03:23:34;10.27;;;4.00;;
21352;SDS011;10834;52.268;6.770;2023-04-25T03:26:20;13.67;;;4.40;;
21352;SDS011;10834;52.268;6.770;2023-04-25T03:29:06;9.67;;;4.13;;
21352;SDS011;10834;52.268;6.770;2023-04-25T03:31:52;10.33;;;3.83;;
21352;SDS011;10834;52.268;6.770;2023-04-25T03:34:39;16.03;;;3.60;;
21352;SDS011;10834;52.268;6.770;2023-04-25T03:37:25;14.37;;;3.80;;
21352;SDS011;10834;52.268;6.770;2023-04-25T03:40:11;15.10;;;4.27;;
21352;SDS011;10834;52.268;6.770;2023-04-25T03:42:57;14.87;;;3.90;;
21352;SDS011;10834;52.268;6.770;2023-04-25T03:45:43;15.47;;;3.57;;
21352;SDS011;10834;52.268;6.770;2023-04-25T03:48:29;9.87;;;3.83;;
21352;SDS011;10834;52.268;6.770;2023-04-25T03:51:16;12.83;;;3.93;;
21352;SDS011;10834;52.268;6.770;2023-04-25T03:54:02;13.17;;;3.77;;
21352;SDS011;10834;52.268;6.770;2023-04-25T03:56:48;13.10;;;4.43;;
21352;SDS011;10834;52.268;6.770;2023-04-25T03:59:34;13.73;;;3.93;;
21352;SDS011;10834;52.268;6.770;2023-04-25T04:02:20;15.23;;;4.47;;
21352;SDS011;10834;52.268;6.770;2023-04-25T04:05:06;10.10;;;3.60;;
21352;SDS011;10834;52.268;6.770;2023-04-25T04:07:52;10.27;;;3.60;;
21352;SDS011;10834;52.268;6.770;2023-04-25T04:10:39;15.80;;;4.07;;
21352;SDS011;10834;52.268;6.770;2023-04-25T04:13:28;9.57;;;3.70;;
21352;SDS011;10834;52.268;6.770;2023-04-25T04:16:14;15.80;;;3.90;;
21352;SDS011;10834;52.268;6.770;2023-04-25T04:19:00;12.93;;;3.50;;
21352;SDS011;10834;52.268;6.770;2023-04-25T04:21:46;17.40;;;4.23;;
21352;SDS011;10834;52.268;6.770;2023-04-25T04:24:32;10.27;;;3.80;;
21352;SDS011;10834;52.268;6.770;2023-04-25T04:27:18;11.60;;;4.00;;
21352;SDS011;10834;52.268;6.770;2023-04-25T04:30:05;17.60;;;4.30;;
21352;SDS011;10834;52.268;6.770;2023-04-25T04:32:52;13.60;;;4.33;;
21352;SDS011;10834;52.268;6.770;2023-04-25T04:35:38;9.03;;;3.80;;
21352;SDS011;10834;52.268;6.770;2023-04-25T04:38:24;11.63;;;3.87;;
21352;SDS011;10834;52.268;6.770;2023-04-25T04:41:10;10.03;;;3.67;;
21352;SDS011;10834;52.268;6.770;2023-04-25T04:43:56;12.37;;;4.43;;
21352;SDS011;10834;52.268;6.770;2023-04-25T04:46:42;8.13;;;3.40;;
21352;SDS011;10834;52.268;6.770;2023-04-25T04:49:29;12.30;;;3.83;;
21352;SDS011;10834;52.268;6.770;2023-04-25T04:52:15;16.37;;;5.00;;
21352;SDS011;10834;52.268;6.770;2023-04-25T04:55:02;11.17;;;4.43;;
21352;SDS011;10834;52.268;6.770;2023-04-25T04:57:49;12.03;;;4.20;;
21352;SDS011;10834;52.268;6.770;2023-04-25T05:00:35;10.67;;;4.17;;
21352;SDS011;10834;52.268;6.770;2023-04-25T05:03:21;14.13;;;4.93;;
21352;SDS011;10834;52.268;6.770;2023-04-25T05:06:07;12.77;;;4.60;;
21352;SDS011;10834;52.268;6.770;2023-04-25T05:08:54;17.70;;;4.33;;
21352;SDS011;10834;52.268;6.770;2023-04-25T05:11:41;9.43;;;3.53;;
21352;SDS011;10834;52.268;6.770;2023-04-25T05:14:26;14.83;;;3.87;;
21352;SDS011;10834;52.268;6.770;2023-04-25T05:17:13;14.07;;;4.33;;
21352;SDS011;10834;52.268;6.770;2023-04-25T05:19:59;15.83;;;4.07;;
21352;SDS011;10834;52.268;6.770;2023-04-25T05:22:45;12.60;;;3.60;;
21352;SDS011;10834;52.268;6.770;2023-04-25T05:25:31;10.33;;;3.60;;
21352;SDS011;10834;52.268;6.770;2023-04-25T05:28:17;16.83;;;4.40;;
21352;SDS011;10834;52.268;6.770;2023-04-25T05:31:03;15.30;;;3.47;;
21352;SDS011;10834;52.268;6.770;2023-04-25T05:33:49;7.63;;;2.87;;
21352;SDS011;10834;52.268;6.770;2023-04-25T05:36:35;11.93;;;3.90;;
21352;SDS011;10834;52.268;6.770;2023-04-25T05:39:21;6.70;;;3.93;;
21352;SDS011;10834;52.268;6.770;2023-04-25T05:42:08;14.23;;;3.27;;
21352;SDS011;10834;52.268;6.770;2023-04-25T05:44:54;8.63;;;3.37;;
21352;SDS011;10834;52.268;6.770;2023-04-25T05:47:40;5.77;;;2.83;;
21352;SDS011;10834;52.268;6.770;2023-04-25T05:50:26;13.43;;;3.20;;
21352;SDS011;10834;52.268;6.770;2023-04-25T05:53:12;7.00;;;2.80;;
21352;SDS011;10834;52.268;6.770;2023-04-25T05:55:58;6.33;;;3.37;;
21352;SDS011;10834;52.268;6.770;2023-04-25T05:58:44;13.83;;;3.50;;
21352;SDS011;10834;52.268;6.770;2023-04-25T06:01:30;8.63;;;3.20;;
21352;SDS011;10834;52.268;6.770;2023-04-25T06:04:16;10.10;;;3.33;;
21352;SDS011;10834;52.268;6.770;2023-04-25T06:07:02;10.67;;;4.57;;
21352;SDS011;10834;52.268;6.770;2023-04-25T06:09:48;6.43;;;3.07;;
21352;SDS011;10834;52.268;6.770;2023-04-25T06:12:35;11.83;;;2.90;;
21352;SDS011;10834;52.268;6.770;2023-04-25T06:15:21;13.60;;;3.30;;
21352;SDS011;10834;52.268;6.770;2023-04-25T06:18:07;8.17;;;2.60;;
21352;SDS011;10834;52.268;6.770;2023-04-25T06:20:53;5.97;;;2.27;;
21352;SDS011;10834;52.268;6.770;2023-04-25T06:23:39;9.27;;;2.30;;
21352;SDS011;10834;52.268;6.770;2023-04-25T06:26:25;13.03;;;2.50;;
21352;SDS011;10834;52.268;6.770;2023-04-25T06:29:11;7.53;;;3.40;;
21352;SDS011;10834;52.268;6.770;2023-04-25T06:31:57;8.10;;;2.73;;
21352;SDS011;10834;52.268;6.770;2023-04-25T06:34:43;8.90;;;2.60;;
21352;SDS011;10834;52.268;6.770;2023-04-25T06:37:30;7.30;;;2.67;;
21352;SDS011;10834;52.268;6.770;2023-04-25T06:40:16;13.10;;;2.40;;
21352;SDS011;10834;52.268;6.770;2023-04-25T06:43:02;8.20;;;2.27;;
21352;SDS011;10834;52.268;6.770;2023-04-25T06:45:48;21.33;;;4.33;;
21352;SDS011;10834;52.268;6.770;2023-04-25T06:48:34;10.83;;;2.87;;
21352;SDS011;10834;52.268;6.770;2023-04-25T06:51:21;10.43;;;2.43;;
21352;SDS011;10834;52.268;6.770;2023-04-25T06:54:07;13.37;;;2.73;;
21352;SDS011;10834;52.268;6.770;2023-04-25T06:56:53;8.70;;;2.53;;
21352;SDS011;10834;52.268;6.770;2023-04-25T06:59:40;10.13;;;3.13;;
21352;SDS011;10834;52.268;6.770;2023-04-25T07:02:26;4.93;;;1.63;;
21352;SDS011;10834;52.268;6.770;2023-04-25T07:05:12;8.17;;;1.90;;
21352;SDS011;10834;52.268;6.770;2023-04-25T07:07:58;6.03;;;1.95;;
21352;SDS011;10834;52.268;6.770;2023-04-25T07:10:44;6.05;;;2.30;;
21352;SDS011;10834;52.268;6.770;2023-04-25T07:13:31;6.93;;;2.17;;
21352;SDS011;10834;52.268;6.770;2023-04-25T07:16:17;4.55;;;1.70;;
21352;SDS011;10834;52.268;6.770;2023-04-25T07:19:03;4.25;;;1.75;;
21352;SDS011;10834;52.268;6.770;2023-04-25T07:21:49;6.88;;;2.08;;
21352;SDS011;10834;52.268;6.770;2023-04-25T07:24:35;6.75;;;2.00;;
21352;SDS011;10834;52.268;6.770;2023-04-25T07:27:21;5.78;;;1.85;;
21352;SDS011;10834;52.268;6.770;2023-04-25T07:30:07;4.10;;;1.98;;
21352;SDS011;10834;52.268;6.770;2023-04-25T07:32:54;6.47;;;1.85;;
21352;SDS011;10834;52.268;6.770;2023-04-25T07:35:41;4.63;;;1.77;;
21352;SDS011;10834;52.268;6.770;2023-04-25T07:38:27;5.18;;;1.92;;
21352;SDS011;10834;52.268;6.770;2023-04-25T07:41:13;5.93;;;1.73;;
21352;SDS011;10834;52.268;6.770;2023-04-25T07:43:59;4.95;;;1.95;;
21352;SDS011;10834;52.268;6.770;2023-04-25T07:46:45;4.93;;;1.52;;
21352;SDS011;10834;52.268;6.770;2023-04-25T07:49:31;5.30;;;1.50;;
21352;SDS011;10834;52.268;6.770;2023-04-25T07:52:17;6.75;;;1.75;;
21352;SDS011;10834;52.268;6.770;2023-04-25T07:55:03;7.57;;;1.35;;
21352;SDS011;10834;52.268;6.770;2023-04-25T07:57:50;8.65;;;1.80;;
21352;SDS011;10834;52.268;6.770;2023-04-25T08:00:36;7.70;;;1.65;;
21352;SDS011;10834;52.268;6.770;2023-04-25T08:03:22;4.35;;;1.50;;
21352;SDS011;10834;52.268;6.770;2023-04-25T08:06:08;4.55;;;1.95;;
21352;SDS011;10834;52.268;6.770;2023-04-25T08:08:54;5.55;;;1.50;;
21352;SDS011;10834;52.268;6.770;2023-04-25T08:11:41;6.00;;;1.27;;
21352;SDS011;10834;52.268;6.770;2023-04-25T08:14:27;8.30;;;1.65;;
21352;SDS011;10834;52.268;6.770;2023-04-25T08:17:16;5.32;;;1.15;;
21352;SDS011;10834;52.268;6.770;2023-04-25T08:20:02;5.72;;;1.15;;
21352;SDS011;10834;52.268;6.770;2023-04-25T08:22:51;6.90;;;2.38;;
21352;SDS011;10834;52.268;6.770;2023-04-25T08:25:37;4.20;;;1.00;;
21352;SDS011;10834;52.268;6.770;2023-04-25T08:28:23;3.10;;;0.95;;
21352;SDS011;10834;52.268;6.770;2023-04-25T08:31:09;5.77;;;1.20;;
21352;SDS011;10834;52.268;6.770;2023-04-25T08:33:55;3.27;;;1.30;;
21352;SDS011;10834;52.268;6.770;2023-04-25T08:36:41;6.83;;;2.03;;
21352;SDS011;10834;52.268;6.770;2023-04-25T08:39:27;5.73;;;1.10;;
21352;SDS011;10834;52.268;6.770;2023-04-25T08:42:14;6.68;;;1.67;;
21352;SDS011;10834;52.268;6.770;2023-04-25T08:45:01;5.00;;;1.48;;
21352;SDS011;10834;52.268;6.770;2023-04-25T08:47:51;4.55;;;1.73;;
21352;SDS011;10834;52.268;6.770;2023-04-25T08:50:40;3.90;;;1.70;;
21352;SDS011;10834;52.268;6.770;2023-04-25T08:53:37;11.47;;;1.53;;
21352;SDS011;10834;52.268;6.770;2023-04-25T08:56:28;3.50;;;1.70;;
21352;SDS011;10834;52.268;6.770;2023-04-25T08:59:14;6.43;;;1.50;;
21352;SDS011;10834;52.268;6.770;2023-04-25T09:02:00;6.63;;;1.70;;
21352;SDS011;10834;52.268;6.770;2023-04-25T09:04:46;4.40;;;1.35;;
21352;SDS011;10834;52.268;6.770;2023-04-25T09:07:33;4.37;;;1.10;;
21352;SDS011;10834;52.268;6.770;2023-04-25T09:10:19;6.13;;;1.60;;
21352;SDS011;10834;52.268;6.770;2023-04-25T09:15:56;3.72;;;1.20;;
21352;SDS011;10834;52.268;6.770;2023-04-25T09:18:42;3.67;;;1.20;;
21352;SDS011;10834;52.268;6.770;2023-04-25T09:21:29;4.70;;;1.33;;
21352;SDS011;10834;52.268;6.770;2023-04-25T09:24:19;3.65;;;1.20;;
21352;SDS011;10834;52.268;6.770;2023-04-25T09:27:22;5.00;;;1.73;;
21352;SDS011;10834;52.268;6.770;2023-04-25T09:30:08;3.50;;;1.17;;
21352;SDS011;10834;52.268;6.770;2023-04-25T09:32:56;6.20;;;1.70;;
21352;SDS011;10834;52.268;6.770;2023-04-25T09:35:43;3.78;;;1.50;;
21352;SDS011;10834;52.268;6.770;2023-04-25T09:38:31;2.72;;;0.80;;
21352;SDS011;10834;52.268;6.770;2023-04-25T09:41:25;4.43;;;1.77;;
21352;SDS011;10834;52.268;6.770;2023-04-25T09:44:14;4.50;;;1.20;;
21352;SDS011;10834;52.268;6.770;2023-04-25T09:47:00;1.98;;;0.75;;
21352;SDS011;10834;52.268;6.770;2023-04-25T09:49:47;2.30;;;0.70;;
21352;SDS011;10834;52.268;6.770;2023-04-25T09:52:33;3.72;;;1.20;;
21352;SDS011;10834;52.268;6.770;2023-04-25T09:55:19;6.97;;;3.90;;
21352;SDS011;10834;52.268;6.770;2023-04-25T09:58:06;19.65;;;14.25;;
21352;SDS011;10834;52.268;6.770;2023-04-25T10:00:54;43.22;;;37.67;;
21352;SDS011;10834;52.268;6.770;2023-04-25T10:03:45;10.38;;;8.68;;
21352;SDS011;10834;52.268;6.770;2023-04-25T10:06:33;3.05;;;1.60;;
21352;SDS011;10834;52.268;6.770;2023-04-25T10:09:21;8.05;;;2.30;;
21352;SDS011;10834;52.268;6.770;2023-04-25T10:12:11;3.58;;;1.45;;
21352;SDS011;10834;52.268;6.770;2023-04-25T10:14:58;4.13;;;1.20;;
21352;SDS011;10834;52.268;6.770;2023-04-25T10:17:45;4.55;;;1.13;;
21352;SDS011;10834;52.268;6.770;2023-04-25T10:20:30;2.08;;;0.90;;
21352;SDS011;10834;52.268;6.770;2023-04-25T10:23:17;2.95;;;1.10;;
21352;SDS011;10834;52.268;6.770;2023-04-25T10:26:04;6.15;;;1.42;;
21352;SDS011;10834;52.268;6.770;2023-04-25T10:29:00;4.18;;;1.38;;
21352;SDS011;10834;52.268;6.770;2023-04-25T10:31:47;3.67;;;1.10;;
21352;SDS011;10834;52.268;6.770;2023-04-25T10:34:40;6.07;;;1.42;;
21352;SDS011;10834;52.268;6.770;2023-04-25T10:37:27;6.28;;;1.23;;
21352;SDS011;10834;52.268;6.770;2023-04-25T10:40:13;3.88;;;1.30;;
21352;SDS011;10834;52.268;6.770;2023-04-25T10:46:23;2.35;;;0.85;;
21352;SDS011;10834;52.268;6.770;2023-04-25T10:49:11;3.08;;;1.25;;
21352;SDS011;10834;52.268;6.770;2023-04-25T10:52:25;6.20;;;1.33;;
21352;SDS011;10834;52.268;6.770;2023-04-25T10:55:12;5.07;;;1.02;;
21352;SDS011;10834;52.268;6.770;2023-04-25T10:57:58;5.07;;;0.82;;
21352;SDS011;10834;52.268;6.770;2023-04-25T11:00:44;4.55;;;1.38;;
21352;SDS011;10834;52.268;6.770;2023-04-25T11:03:30;4.53;;;1.35;;
21352;SDS011;10834;52.268;6.770;2023-04-25T11:06:22;5.38;;;0.63;;
21352;SDS011;10834;52.268;6.770;2023-04-25T11:09:12;3.80;;;0.70;;
21352;SDS011;10834;52.268;6.770;2023-04-25T11:11:59;4.50;;;1.17;;
21352;SDS011;10834;52.268;6.770;2023-04-25T11:14:45;3.80;;;0.67;;
21352;SDS011;10834;52.268;6.770;2023-04-25T11:17:32;2.30;;;0.77;;
21352;SDS011;10834;52.268;6.770;2023-04-25T11:20:18;4.23;;;0.67;;
21352;SDS011;10834;52.268;6.770;2023-04-25T11:23:05;2.83;;;0.97;;
21352;SDS011;10834;52.268;6.770;2023-04-25T11:25:51;2.03;;;0.50;;
21352;SDS011;10834;52.268;6.770;2023-04-25T11:28:37;2.20;;;0.70;;
21352;SDS011;10834;52.268;6.770;2023-04-25T11:31:24;4.10;;;0.70;;
21352;SDS011;10834;52.268;6.770;2023-04-25T11:34:10;6.03;;;1.20;;
21352;SDS011;10834;52.268;6.770;2023-04-25T11:36:57;3.63;;;1.00;;
21352;SDS011;10834;52.268;6.770;2023-04-25T11:39:43;3.93;;;0.80;;
21352;SDS011;10834;52.268;6.770;2023-04-25T11:42:31;1.57;;;0.73;;
21352;SDS011;10834;52.268;6.770;2023-04-25T11:45:18;4.10;;;0.83;;
21352;SDS011;10834;52.268;6.770;2023-04-25T11:48:05;4.97;;;1.03;;
21352;SDS011;10834;52.268;6.770;2023-04-25T11:50:51;4.40;;;0.87;;
21352;SDS011;10834;52.268;6.770;2023-04-25T11:53:38;3.63;;;0.90;;
21352;SDS011;10834;52.268;6.770;2023-04-25T11:56:27;1.90;;;0.83;;
21352;SDS011;10834;52.268;6.770;2023-04-25T11:59:13;5.37;;;1.40;;
21352;SDS011;10834;52.268;6.770;2023-04-25T12:02:00;4.77;;;1.20;;
21352;SDS011;10834;52.268;6.770;2023-04-25T12:04:47;3.17;;;1.20;;
21352;SDS011;10834;52.268;6.770;2023-04-25T12:07:33;5.30;;;1.00;;
21352;SDS011;10834;52.268;6.770;2023-04-25T12:10:19;1.63;;;0.83;;
21352;SDS011;10834;52.268;6.770;2023-04-25T12:13:25;4.57;;;1.00;;
21352;SDS011;10834;52.268;6.770;2023-04-25T12:16:13;3.77;;;1.10;;
21352;SDS011;10834;52.268;6.770;2023-04-25T12:18:59;3.43;;;1.13;;
21352;SDS011;10834;52.268;6.770;2023-04-25T12:21:45;4.83;;;1.70;;
21352;SDS011;10834;52.268;6.770;2023-04-25T12:24:33;4.03;;;0.90;;
21352;SDS011;10834;52.268;6.770;2023-04-25T12:27:19;3.07;;;1.10;;
21352;SDS011;10834;52.268;6.770;2023-04-25T12:30:05;4.50;;;1.10;;
21352;SDS011;10834;52.268;6.770;2023-04-25T12:32:52;4.50;;;1.10;;
21352;SDS011;10834;52.268;6.770;2023-04-25T12:35:38;3.63;;;0.80;;
21352;SDS011;10834;52.268;6.770;2023-04-25T12:38:25;3.80;;;1.00;;
21352;SDS011;10834;52.268;6.770;2023-04-25T12:41:12;3.13;;;0.93;;
21352;SDS011;10834;52.268;6.770;2023-04-25T12:43:58;5.47;;;1.30;;
21352;SDS011;10834;52.268;6.770;2023-04-25T12:46:44;4.90;;;1.07;;
21352;SDS011;10834;52.268;6.770;2023-04-25T12:49:31;4.23;;;1.70;;
21352;SDS011;10834;52.268;6.770;2023-04-25T12:52:17;8.80;;;1.50;;
21352;SDS011;10834;52.268;6.770;2023-04-25T12:55:03;6.33;;;1.63;;
21352;SDS011;10834;52.268;6.770;2023-04-25T12:57:49;5.83;;;1.33;;
21352;SDS011;10834;52.268;6.770;2023-04-25T13:00:35;6.93;;;1.70;;
21352;SDS011;10834;52.268;6.770;2023-04-25T13:03:22;7.47;;;1.60;;
21352;SDS011;10834;52.268;6.770;2023-04-25T13:06:08;6.37;;;2.17;;
21352;SDS011;10834;52.268;6.770;2023-04-25T13:08:54;2.87;;;1.20;;
21352;SDS011;10834;52.268;6.770;2023-04-25T13:11:40;5.40;;;1.30;;
21352;SDS011;10834;52.268;6.770;2023-04-25T13:14:27;2.90;;;0.80;;
21352;SDS011;10834;52.268;6.770;2023-04-25T13:17:13;2.17;;;0.90;;
21352;SDS011;10834;52.268;6.770;2023-04-25T13:19:59;2.60;;;0.97;;
21352;SDS011;10834;52.268;6.770;2023-04-25T13:22:45;1.63;;;0.77;;
21352;SDS011;10834;52.268;6.770;2023-04-25T13:25:31;1.60;;;0.60;;
21352;SDS011;10834;52.268;6.770;2023-04-25T13:28:17;1.57;;;0.70;;
21352;SDS011;10834;52.268;6.770;2023-04-25T13:31:04;3.47;;;0.80;;
21352;SDS011;10834;52.268;6.770;2023-04-25T13:33:50;1.23;;;0.43;;
21352;SDS011;10834;52.268;6.770;2023-04-25T13:36:36;1.23;;;0.50;;
21352;SDS011;10834;52.268;6.770;2023-04-25T13:39:23;1.57;;;0.50;;
21352;SDS011;10834;52.268;6.770;2023-04-25T13:42:09;3.83;;;1.13;;
21352;SDS011;10834;52.268;6.770;2023-04-25T13:44:56;2.77;;;0.80;;
21352;SDS011;10834;52.268;6.770;2023-04-25T13:47:42;3.90;;;1.40;;
21352;SDS011;10834;52.268;6.770;2023-04-25T13:50:28;1.63;;;0.60;;
21352;SDS011;10834;52.268;6.770;2023-04-25T13:53:14;4.47;;;0.97;;
21352;SDS011;10834;52.268;6.770;2023-04-25T13:56:00;1.20;;;0.73;;
21352;SDS011;10834;52.268;6.770;2023-04-25T13:58:46;4.53;;;1.10;;
21352;SDS011;10834;52.268;6.770;2023-04-25T14:01:32;2.90;;;1.07;;
21352;SDS011;10834;52.268;6.770;2023-04-25T14:04:20;4.73;;;0.97;;
21352;SDS011;10834;52.268;6.770;2023-04-25T14:07:06;3.23;;;0.70;;
21352;SDS011;10834;52.268;6.770;2023-04-25T14:09:53;2.50;;;0.87;;
21352;SDS011;10834;52.268;6.770;2023-04-25T14:12:39;5.67;;;0.80;;
21352;SDS011;10834;52.268;6.770;2023-04-25T14:15:25;1.37;;;1.20;;
21352;SDS011;10834;52.268;6.770;2023-04-25T14:18:11;3.30;;;0.60;;
21352;SDS011;10834;52.268;6.770;2023-04-25T14:20:57;2.77;;;0.50;;
21352;SDS011;10834;52.268;6.770;2023-04-25T14:23:43;1.13;;;0.60;;
21352;SDS011;10834;52.268;6.770;2023-04-25T14:26:29;3.43;;;0.90;;
21352;SDS011;10834;52.268;6.770;2023-04-25T14:29:15;1.93;;;0.57;;
21352;SDS011;10834;52.268;6.770;2023-04-25T14:32:01;2.60;;;0.80;;
21352;SDS011;10834;52.268;6.770;2023-04-25T14:34:47;2.53;;;0.87;;
21352;SDS011;10834;52.268;6.770;2023-04-25T14:37:33;4.77;;;1.30;;
21352;SDS011;10834;52.268;6.770;2023-04-25T14:40:20;4.80;;;1.20;;
21352;SDS011;10834;52.268;6.770;2023-04-25T14:43:08;2.43;;;1.00;;
21352;SDS011;10834;52.268;6.770;2023-04-25T14:45:54;4.93;;;2.23;;
21352;SDS011;10834;52.268;6.770;2023-04-25T14:48:40;3.53;;;1.13;;
21352;SDS011;10834;52.268;6.770;2023-04-25T14:51:27;5.40;;;1.43;;
21352;SDS011;10834;52.268;6.770;2023-04-25T14:54:13;5.10;;;1.17;;
21352;SDS011;10834;52.268;6.770;2023-04-25T14:56:59;2.67;;;1.00;;
21352;SDS011;10834;52.268;6.770;2023-04-25T14:59:45;4.13;;;1.27;;
21352;SDS011;10834;52.268;6.770;2023-04-25T15:02:32;4.00;;;0.93;;
21352;SDS011;10834;52.268;6.770;2023-04-25T15:05:18;5.10;;;1.30;;
21352;SDS011;10834;52.268;6.770;2023-04-25T15:08:05;4.30;;;0.93;;
21352;SDS011;10834;52.268;6.770;2023-04-25T15:10:51;2.70;;;0.90;;
21352;SDS011;10834;52.268;6.770;2023-04-25T15:13:37;6.93;;;1.00;;
21352;SDS011;10834;52.268;6.770;2023-04-25T15:16:24;7.10;;;3.37;;
21352;SDS011;10834;52.268;6.770;2023-04-25T15:19:10;19.93;;;7.73;;
21352;SDS011;10834;52.268;6.770;2023-04-25T15:21:56;14.23;;;4.27;;
21352;SDS011;10834;52.268;6.770;2023-04-25T15:24:45;10.30;;;5.20;;
21352;SDS011;10834;52.268;6.770;2023-04-25T15:27:31;10.73;;;5.90;;
21352;SDS011;10834;52.268;6.770;2023-04-25T15:30:18;13.77;;;6.00;;
21352;SDS011;10834;52.268;6.770;2023-04-25T15:33:04;6.50;;;3.50;;
21352;SDS011;10834;52.268;6.770;2023-04-25T15:35:51;3.07;;;1.77;;
21352;SDS011;10834;52.268;6.770;2023-04-25T15:38:37;4.83;;;1.40;;
21352;SDS011;10834;52.268;6.770;2023-04-25T15:41:23;2.33;;;1.20;;
21352;SDS011;10834;52.268;6.770;2023-04-25T15:44:10;4.03;;;1.20;;
21352;SDS011;10834;52.268;6.770;2023-04-25T15:46:56;5.10;;;1.50;;
21352;SDS011;10834;52.268;6.770;2023-04-25T15:49:42;2.07;;;1.10;;
21352;SDS011;10834;52.268;6.770;2023-04-25T15:52:29;6.37;;;1.43;;
21352;SDS011;10834;52.268;6.770;2023-04-25T15:55:15;4.70;;;1.70;;
21352;SDS011;10834;52.268;6.770;2023-04-25T15:58:02;3.70;;;1.30;;
21352;SDS011;10834;52.268;6.770;2023-04-25T16:00:48;6.33;;;1.53;;
21352;SDS011;10834;52.268;6.770;2023-04-25T16:03:36;4.40;;;1.17;;
21352;SDS011;10834;52.268;6.770;2023-04-25T16:06:23;2.70;;;1.00;;
21352;SDS011;10834;52.268;6.770;2023-04-25T16:09:10;3.40;;;0.97;;
21352;SDS011;10834;52.268;6.770;2023-04-25T16:11:56;4.10;;;1.03;;
21352;SDS011;10834;52.268;6.770;2023-04-25T16:14:42;4.87;;;1.27;;
21352;SDS011;10834;52.268;6.770;2023-04-25T16:17:28;5.50;;;1.27;;
21352;SDS011;10834;52.268;6.770;2023-04-25T16:20:14;3.73;;;1.10;;
21352;SDS011;10834;52.268;6.770;2023-04-25T16:23:01;2.63;;;0.87;;
21352;SDS011;10834;52.268;6.770;2023-04-25T16:25:47;3.13;;;1.50;;
21352;SDS011;10834;52.268;6.770;2023-04-25T16:28:35;4.73;;;1.13;;
21352;SDS011;10834;52.268;6.770;2023-04-25T16:31:21;10.83;;;1.63;;
21352;SDS011;10834;52.268;6.770;2023-04-25T16:34:07;3.27;;;1.10;;
21352;SDS011;10834;52.268;6.770;2023-04-25T16:36:54;6.27;;;1.70;;
21352;SDS011;10834;52.268;6.770;2023-04-25T16:39:41;4.20;;;1.20;;
21352;SDS011;10834;52.268;6.770;2023-04-25T16:42:27;2.50;;;0.97;;
21352;SDS011;10834;52.268;6.770;2023-04-25T16:45:13;5.13;;;1.43;;